Time;durP1;ratioP1;P1;durP2;ratioP2;P2;SDS_P1;SDS_P2;PMS_P1;PMS_P2;Temp;Humidity;BMP_temperature;BMP_pressure;BME280_temperature;BME280_humidity;BME280_pressure;Samples;Min_cycle;Max_cycle;Signal;HPM_P1;HPM_P2
2023/05/17 00:02:23;;;;;;;22.40;18.90;;;;;;;13.80;98.44;100501.87;105162;1271;101376;-76
2023/05/17 00:05:10;;;;;;;23.60;18.90;;;;;;;13.76;98.63;100503.45;105285;1256;99818;-77
2023/05/17 00:07:55;;;;;;;22.60;19.50;;;;;;;13.74;98.97;100504.88;105251;1261;98643;-77
2023/05/17 00:10:42;;;;;;;26.20;20.20;;;;;;;13.72;99.16;100504.92;105284;1261;97958;-76
2023/05/17 00:13:27;;;;;;;24.00;20.00;;;;;;;13.75;99.31;100502.55;105225;1258;98466;-78
2023/05/17 00:16:13;;;;;;;24.20;20.70;;;;;;;13.76;99.56;100497.79;105146;1262;101352;-77
2023/05/17 00:18:58;;;;;;;22.80;19.80;;;;;;;13.72;99.61;100494.60;105176;1278;100835;-76
2023/05/17 00:21:44;;;;;;;23.90;20.20;;;;;;;13.69;99.95;100497.30;105437;1262;98993;-76
2023/05/17 00:24:30;;;;;;;25.80;20.70;;;;;;;13.67;100.00;100494.70;105199;1262;99192;-77
2023/05/17 00:27:15;;;;;;;23.80;20.90;;;;;;;13.68;100.00;100500.38;105159;1262;99219;-77
2023/05/17 00:30:01;;;;;;;25.20;20.70;;;;;;;13.70;100.00;100505.13;105273;1257;101356;-77
2023/05/17 00:32:47;;;;;;;23.80;21.20;;;;;;;13.68;100.00;100504.92;105210;1273;99986;-76
2023/05/17 00:35:32;;;;;;;29.70;22.10;;;;;;;13.66;100.00;100506.58;105090;1263;97897;-77
2023/05/17 00:38:18;;;;;;;23.60;21.10;;;;;;;13.63;100.00;100505.34;105208;1260;97964;-78
2023/05/17 00:41:03;;;;;;;25.20;22.30;;;;;;;13.61;100.00;100505.22;105088;1264;98127;-77
2023/05/17 00:43:49;;;;;;;25.50;20.60;;;;;;;13.61;100.00;100501.44;105237;1273;102020;-77
2023/05/17 00:46:34;;;;;;;22.80;20.40;;;;;;;13.58;100.00;100496.15;105308;1274;99443;-78
2023/05/17 00:49:20;;;;;;;28.70;22.10;;;;;;;13.54;100.00;100494.91;105047;1263;98015;-78
2023/05/17 00:52:05;;;;;;;23.30;20.70;;;;;;;13.52;100.00;100495.00;105114;1258;97963;-77
2023/05/17 00:54:51;;;;;;;25.00;21.60;;;;;;;13.50;100.00;100496.04;105174;1261;98518;-78
2023/05/17 00:57:37;;;;;;;24.90;22.30;;;;;;;13.48;100.00;100492.55;105148;1264;101417;-77
2023/05/17 01:00:23;;;;;;;25.90;23.10;;;;;;;13.46;100.00;100494.66;104933;1265;99104;-76
2023/05/17 01:03:08;;;;;;;26.20;22.60;;;;;;;13.43;100.00;100489.04;105205;1257;99585;-77
2023/05/17 01:05:54;;;;;;;24.80;21.50;;;;;;;13.40;100.00;100487.22;105196;1271;99562;-77
2023/05/17 01:08:41;;;;;;;29.60;22.30;;;;;;;13.37;100.00;100483.30;105736;1260;97970;-79
2023/05/17 01:11:45;;;;;;;24.40;21.30;;;;;;;13.35;100.00;100481.42;105990;1263;101338;-80
2023/05/17 01:14:57;;;;;;;25.20;22.20;;;;;;;13.32;100.00;100478.98;105908;1263;100674;-79
2023/05/17 01:17:56;;;;;;;23.90;19.50;;;;;;;13.31;100.00;100479.07;105827;1263;98985;-79
2023/05/17 01:20:44;;;;;;;24.30;21.30;;;;;;;13.28;100.00;100476.55;108314;1257;95866;-79
2023/05/17 01:23:42;;;;;;;26.40;23.00;;;;;;;13.28;100.00;100473.66;105909;1264;98809;-78
2023/05/17 01:26:38;;;;;;;24.50;21.90;;;;;;;13.26;100.00;100475.09;105921;1263;103100;-79
2023/05/17 01:29:28;;;;;;;24.20;21.60;;;;;;;13.24;100.00;100479.81;106032;1263;99108;-80
2023/05/17 01:32:15;;;;;;;26.00;22.60;;;;;;;13.23;100.00;100479.98;105954;1257;98451;-79
2023/05/17 01:35:04;;;;;;;23.30;20.80;;;;;;;13.21;100.00;100481.46;105899;1263;98751;-79
2023/05/17 01:37:51;;;;;;;26.90;23.50;;;;;;;13.21;100.00;100484.79;105334;1263;98477;-76
2023/05/17 01:40:46;;;;;;;24.90;22.30;;;;;;;13.19;100.00;100486.23;105278;1266;102739;-76
2023/05/17 01:43:42;;;;;;;27.80;22.30;;;;;;;13.19;100.00;100489.20;105238;1258;100177;-76
2023/05/17 01:46:41;;;;;;;22.60;20.10;;;;;;;13.18;100.00;100487.80;105943;1261;98514;-77
2023/05/17 01:49:34;;;;;;;26.50;20.90;;;;;;;13.17;100.00;100490.19;105169;1258;97993;-77
2023/05/17 01:52:34;;;;;;;27.10;20.10;;;;;;;13.16;100.00;100493.63;105195;1260;99244;-77
2023/05/17 01:55:48;;;;;;;23.10;19.20;;;;;;;13.14;100.00;100499.50;105243;1264;102001;-76
2023/05/17 01:58:47;;;;;;;21.60;19.30;;;;;;;13.10;100.00;100496.85;105383;1257;99240;-79
2023/05/17 02:01:34;;;;;;;23.50;20.00;;;;;;;13.07;100.00;100495.07;106485;1257;98002;-77
2023/05/17 02:04:20;;;;;;;20.50;18.30;;;;;;;13.05;100.00;100494.04;105122;1258;98066;-77
2023/05/17 02:07:05;;;;;;;19.80;17.70;;;;;;;13.06;100.00;100496.15;105273;1263;97971;-75
2023/05/17 02:09:51;;;;;;;20.70;17.50;;;;;;;13.06;100.00;100495.20;105311;1258;101399;-77
2023/05/17 02:12:36;;;;;;;21.80;18.80;;;;;;;13.05;100.00;100500.69;105271;1257;100417;-76
2023/05/17 02:15:22;;;;;;;20.50;18.10;;;;;;;13.05;100.00;100497.70;105280;1264;99018;-78
2023/05/17 02:18:08;;;;;;;20.00;17.20;;;;;;;13.01;100.00;100496.69;105168;1264;97947;-78
2023/05/17 02:20:53;;;;;;;18.20;16.00;;;;;;;12.99;100.00;100503.59;105161;1260;98499;-76
2023/05/17 02:23:39;;;;;;;17.40;15.60;;;;;;;12.99;100.00;100509.02;105163;1258;102657;-76
2023/05/17 02:26:25;;;;;;;19.10;16.40;;;;;;;12.99;100.00;100516.21;105245;1263;100416;-77
2023/05/17 02:29:10;;;;;;;18.60;15.80;;;;;;;12.98;100.00;100518.36;105186;1261;99406;-77
2023/05/17 02:31:56;;;;;;;17.90;15.90;;;;;;;12.97;100.00;100520.71;105251;1263;97956;-76
2023/05/17 02:34:41;;;;;;;16.70;13.50;;;;;;;12.97;100.00;100518.90;105129;1270;98403;-77
2023/05/17 02:37:27;;;;;;;17.00;14.90;;;;;;;12.97;100.00;100521.17;105223;1273;101343;-76
2023/05/17 02:40:12;;;;;;;16.30;14.60;;;;;;;12.95;100.00;100520.13;105017;1262;108460;-77
2023/05/17 02:42:58;;;;;;;21.00;15.00;;;;;;;12.93;100.00;100518.96;105108;1257;99133;-77
2023/05/17 02:45:44;;;;;;;18.80;15.20;;;;;;;12.92;100.00;100520.58;105153;1261;99353;-77
2023/05/17 02:48:31;;;;;;;17.70;15.80;;;;;;;12.92;100.00;100527.48;105258;1257;97982;-76
2023/05/17 02:51:17;;;;;;;17.00;15.20;;;;;;;12.93;100.00;100528.85;105210;1260;102512;-77
2023/05/17 02:54:03;;;;;;;16.80;13.70;;;;;;;12.93;100.00;100531.26;105271;1258;100585;-78
2023/05/17 02:56:49;;;;;;;17.50;15.00;;;;;;;12.93;100.00;100534.36;105215;1262;99271;-76
2023/05/17 02:59:36;;;;;;;16.30;14.60;;;;;;;12.93;100.00;100535.10;105075;1264;97992;-77
2023/05/17 03:02:22;;;;;;;16.90;15.10;;;;;;;12.92;100.00;100531.88;105184;1257;98457;-77
2023/05/17 03:05:07;;;;;;;18.80;15.50;;;;;;;12.90;100.00;100534.77;105160;1264;102732;-77
2023/05/17 03:07:55;;;;;;;17.00;13.80;;;;;;;12.87;100.00;100534.42;105220;1270;99253;-75
2023/05/17 03:10:40;;;;;;;17.90;14.60;;;;;;;12.85;100.00;100534.17;105376;1257;99434;-79
2023/05/17 03:13:27;;;;;;;16.60;13.90;;;;;;;12.84;100.00;100533.77;105903;1258;97855;-78
2023/05/17 03:16:12;;;;;;;18.10;14.90;;;;;;;12.82;100.00;100534.90;105850;1257;98499;-79
2023/05/17 03:18:58;;;;;;;17.60;15.10;;;;;;;12.82;100.00;100536.11;105835;1263;101378;-78
2023/05/17 03:21:44;;;;;;;16.40;14.10;;;;;;;12.82;100.00;100538.42;105392;1256;99220;-76
2023/05/17 03:24:30;;;;;;;20.20;14.70;;;;;;;12.80;100.00;100542.60;105072;1264;98061;-76
2023/05/17 03:27:16;;;;;;;16.30;14.50;;;;;;;12.77;100.00;100546.27;105332;1260;98068;-78
2023/05/17 03:30:02;;;;;;;16.50;14.80;;;;;;;12.77;100.00;100548.95;105133;1256;97848;-76
2023/05/17 03:32:48;;;;;;;17.20;14.90;;;;;;;12.78;100.00;100547.27;105534;1260;101452;-77
2023/05/17 03:35:34;;;;;;;16.80;14.40;;;;;;;12.80;100.00;100547.09;105587;1260;100587;-78
2023/05/17 03:38:19;;;;;;;19.00;15.90;;;;;;;12.79;100.00;100550.95;105460;1257;98415;-78
2023/05/17 03:41:05;;;;;;;17.00;15.20;;;;;;;12.79;100.00;100551.27;105274;1258;98846;-76
2023/05/17 03:43:51;;;;;;;17.60;15.10;;;;;;;12.78;100.00;100553.21;105718;1263;98744;-79
2023/05/17 03:46:37;;;;;;;17.50;15.60;;;;;;;12.77;100.00;100553.16;105698;1257;101350;-78
2023/05/17 03:49:23;;;;;;;18.20;15.60;;;;;;;12.78;100.00;100558.21;105753;1258;100459;-79
2023/05/17 03:52:09;;;;;;;18.40;14.80;;;;;;;12.77;100.00;100559.09;105761;1258;98053;-78
2023/05/17 03:54:55;;;;;;;17.30;15.50;;;;;;;12.76;100.00;100564.29;105599;1264;97966;-79
2023/05/17 03:57:40;;;;;;;17.10;15.30;;;;;;;12.75;100.00;100567.67;105534;1257;97918;-78
2023/05/17 04:00:26;;;;;;;17.50;15.30;;;;;;;12.73;100.00;100571.44;105558;1259;109894;-78
2023/05/17 04:03:14;;;;;;;17.80;15.30;;;;;;;12.73;100.00;100570.81;105486;1258;99824;-78
2023/05/17 04:06:05;;;;;;;17.00;14.60;;;;;;;12.72;100.00;100567.30;105588;1261;98060;-78
2023/05/17 04:08:53;;;;;;;17.80;14.20;;;;;;;12.74;100.00;100573.50;105760;1257;97958;-78
2023/05/17 04:11:41;;;;;;;15.50;13.90;;;;;;;12.72;100.00;100573.20;105612;1257;97872;-79
2023/05/17 04:14:27;;;;;;;14.70;13.20;;;;;;;12.69;100.00;100573.41;105439;1257;101322;-78
2023/05/17 04:17:14;;;;;;;17.80;14.20;;;;;;;12.69;100.00;100572.00;105628;1258;100083;-78
2023/05/17 04:20:00;;;;;;;16.20;14.50;;;;;;;12.71;100.00;100572.70;105383;1256;97989;-78
2023/05/17 04:22:45;;;;;;;17.00;15.20;;;;;;;12.70;100.00;100571.00;105477;1260;97931;-77
2023/05/17 04:25:30;;;;;;;15.80;14.10;;;;;;;12.70;100.00;100575.52;105416;1261;97977;-78
2023/05/17 04:28:16;;;;;;;15.10;13.50;;;;;;;12.69;100.00;100574.15;105009;1264;101367;-77
2023/05/17 04:31:06;;;;;;;16.70;14.20;;;;;;;12.70;100.00;100574.80;105135;1257;99104;-75
2023/05/17 04:33:52;;;;;;;16.70;14.50;;;;;;;12.71;100.00;100578.54;105225;1262;98018;-77
2023/05/17 04:36:38;;;;;;;15.50;14.00;;;;;;;12.74;100.00;100585.70;105138;1260;99104;-77
2023/05/17 04:39:23;;;;;;;16.10;14.40;;;;;;;12.74;100.00;100586.98;105078;1263;98593;-76
2023/05/17 04:42:10;;;;;;;14.60;13.20;;;;;;;12.74;100.00;100591.62;105093;1264;101356;-76
2023/05/17 04:44:59;;;;;;;17.50;14.40;;;;;;;12.77;100.00;100596.42;105143;1257;99109;-77
2023/05/17 04:47:45;;;;;;;14.90;13.40;;;;;;;12.79;100.00;100604.20;105109;1260;97998;-78
2023/05/17 04:50:30;;;;;;;16.10;14.00;;;;;;;12.79;100.00;100603.51;105346;1257;98011;-76
2023/05/17 04:53:16;;;;;;;15.50;13.70;;;;;;;12.78;100.00;100598.08;105940;1262;97896;-79
2023/05/17 04:56:03;;;;;;;14.90;13.30;;;;;;;12.78;100.00;100600.20;105849;1257;102211;-78
2023/05/17 04:58:49;;;;;;;15.10;13.50;;;;;;;12.79;100.00;100605.44;105685;1257;99808;-78
2023/05/17 05:01:35;;;;;;;16.90;14.40;;;;;;;12.81;100.00;100608.34;105646;1262;97973;-76
2023/05/17 05:04:20;;;;;;;14.70;12.90;;;;;;;12.85;100.00;100610.92;105149;1257;98080;-76
2023/05/17 05:07:07;;;;;;;14.10;12.70;;;;;;;12.87;100.00;100613.09;105099;1263;97945;-76
2023/05/17 05:09:53;;;;;;;14.80;13.20;;;;;;;12.90;100.00;100613.34;104997;1264;101356;-77
2023/05/17 05:12:39;;;;;;;15.00;13.50;;;;;;;12.92;100.00;100610.91;105649;1258;99080;-76
2023/05/17 05:15:25;;;;;;;12.80;11.60;;;;;;;12.94;100.00;100609.52;105417;1263;98182;-78
2023/05/17 05:18:15;;;;;;;15.20;12.40;;;;;;;12.93;100.00;100611.95;105359;1262;97970;-78
2023/05/17 05:21:00;;;;;;;13.40;10.80;;;;;;;12.94;100.00;100606.16;105275;1258;98387;-78
2023/05/17 05:23:46;;;;;;;10.90;9.70;;;;;;;12.92;100.00;100593.84;105318;1258;101351;-78
2023/05/17 05:26:34;;;;;;;12.40;9.60;;;;;;;12.89;100.00;100582.74;105134;1264;99088;-77
2023/05/17 05:29:20;;;;;;;11.20;9.80;;;;;;;12.86;100.00;100565.02;105189;1261;97977;-77
2023/05/17 05:32:06;;;;;;;11.60;9.70;;;;;;;12.83;100.00;100551.99;105356;1260;98082;-78
2023/05/17 05:34:55;;;;;;;10.90;9.80;;;;;;;12.79;100.00;100551.85;105420;1263;97948;-79
2023/05/17 05:37:43;;;;;;;11.50;9.60;;;;;;;12.76;100.00;100555.08;105115;1262;102633;-76
2023/05/17 05:40:28;;;;;;;11.40;9.70;;;;;;;12.76;100.00;100566.48;105016;1257;99856;-76
2023/05/17 05:43:14;;;;;;;10.50;9.50;;;;;;;12.76;100.00;100582.56;105035;1261;97992;-76
2023/05/17 05:46:00;;;;;;;9.70;8.80;;;;;;;12.76;100.00;100593.52;105051;1258;99107;-78
2023/05/17 05:48:46;;;;;;;10.00;8.90;;;;;;;12.75;100.00;100595.75;105162;1262;98064;-77
2023/05/17 05:51:31;;;;;;;10.40;9.30;;;;;;;12.75;100.00;100593.85;105179;1264;102131;-76
2023/05/17 05:54:16;;;;;;;11.10;9.60;;;;;;;12.74;100.00;100597.94;105054;1262;99336;-75
2023/05/17 05:57:02;;;;;;;10.10;9.10;;;;;;;12.75;100.00;100612.75;105521;1260;97988;-76
2023/05/17 05:59:47;;;;;;;9.20;8.30;;;;;;;12.77;100.00;100619.13;105111;1257;98119;-75
2023/05/17 06:02:33;;;;;;;9.00;7.20;;;;;;;12.74;100.00;100619.70;105103;1263;98514;-76
2023/05/17 06:05:19;;;;;;;9.30;7.80;;;;;;;12.70;100.00;100621.20;105095;1262;102122;-77
2023/05/17 06:08:05;;;;;;;8.10;7.30;;;;;;;12.64;100.00;100622.67;105129;1257;100449;-76
2023/05/17 06:10:50;;;;;;;7.90;7.20;;;;;;;12.58;100.00;100630.50;105082;1261;97958;-75
2023/05/17 06:13:36;;;;;;;7.90;7.20;;;;;;;12.52;100.00;100630.13;105353;1261;97992;-78
2023/05/17 06:16:22;;;;;;;8.70;7.60;;;;;;;12.49;100.00;100632.17;105810;1257;98507;-79
2023/05/17 06:19:07;;;;;;;8.20;7.10;;;;;;;12.44;100.00;100640.66;105686;1260;111264;-78
2023/05/17 06:21:53;;;;;;;9.40;8.40;;;;;;;12.38;100.00;100642.32;105284;1261;99098;-76
2023/05/17 06:24:39;;;;;;;10.90;8.50;;;;;;;12.34;100.00;100649.44;105117;1257;98979;-77
2023/05/17 06:27:25;;;;;;;11.30;9.60;;;;;;;12.30;100.00;100650.70;105159;1257;97979;-75
2023/05/17 06:30:11;;;;;;;10.20;9.10;;;;;;;12.25;100.00;100648.85;105085;1260;98053;-75
2023/05/17 06:32:56;;;;;;;9.50;8.30;;;;;;;12.22;100.00;100648.33;105301;1257;101342;-77
2023/05/17 06:35:42;;;;;;;12.60;9.90;;;;;;;12.19;100.00;100650.74;105149;1256;99775;-76
2023/05/17 06:38:27;;;;;;;11.00;9.10;;;;;;;12.15;100.00;100662.41;105108;1257;98569;-76
2023/05/17 06:41:13;;;;;;;10.00;8.90;;;;;;;12.12;100.00;100668.66;105097;1256;97966;-76
2023/05/17 06:43:58;;;;;;;11.90;9.30;;;;;;;12.09;100.00;100665.50;105556;1257;99355;-79
2023/05/17 06:46:44;;;;;;;8.90;8.00;;;;;;;12.06;100.00;100669.91;105752;1257;102535;-77
2023/05/17 06:49:30;;;;;;;10.90;9.10;;;;;;;12.05;100.00;100675.26;105722;1258;100757;-78
2023/05/17 06:52:16;;;;;;;11.50;9.40;;;;;;;12.04;100.00;100680.04;105794;1262;98744;-78
2023/05/17 06:55:02;;;;;;;10.60;9.20;;;;;;;12.05;100.00;100682.66;105539;1260;97870;-77
2023/05/17 06:57:47;;;;;;;11.40;10.30;;;;;;;12.05;100.00;100681.71;105562;1257;97951;-78
2023/05/17 07:00:33;;;;;;;11.60;10.40;;;;;;;12.05;100.00;100676.54;105781;1257;102607;-79
2023/05/17 07:03:19;;;;;;;13.80;11.50;;;;;;;12.06;100.00;100672.38;105784;1260;101366;-79
2023/05/17 07:06:05;;;;;;;15.00;12.50;;;;;;;12.08;100.00;100673.14;105705;1260;99308;-76
2023/05/17 07:08:50;;;;;;;20.90;13.30;;;;;;;12.07;100.00;100670.73;105147;1256;99481;-75
2023/05/17 07:11:36;;;;;;;17.40;13.30;;;;;;;12.07;100.00;100676.06;105254;1257;99126;-77
2023/05/17 07:14:21;;;;;;;19.00;13.40;;;;;;;12.07;100.00;100673.61;105384;1257;101339;-76
2023/05/17 07:17:09;;;;;;;16.00;13.80;;;;;;;12.06;100.00;100673.70;105668;1260;100328;-78
2023/05/17 07:20:04;;;;;;;21.80;13.40;;;;;;;12.05;100.00;100676.04;106442;1257;98151;-91
2023/05/17 07:22:53;;;;;;;17.20;13.50;;;;;;;12.02;100.00;100684.84;108344;1257;96199;-90
2023/05/17 07:25:48;;;;;;;17.90;13.10;;;;;;;12.01;100.00;100700.36;107736;1257;98053;-89
2023/05/17 07:28:34;;;;;;;15.30;13.00;;;;;;;12.05;100.00;100703.27;108254;1257;101407;-88
2023/05/17 07:31:19;;;;;;;16.70;13.50;;;;;;;12.06;100.00;100697.70;108240;1256;99209;-91
2023/05/17 07:34:06;;;;;;;19.90;13.50;;;;;;;12.08;100.00;100699.19;107503;1261;98987;-88
2023/05/17 07:36:53;;;;;;;19.20;13.90;;;;;;;12.11;100.00;100706.77;105616;1259;97968;-93
2023/05/17 07:40:00;;;;;;;18.10;12.90;;;;;;;12.10;100.00;100709.20;106824;1257;98608;-91
2023/05/17 07:43:01;;;;;;;15.80;12.30;;;;;;;12.08;100.00;100718.98;105985;1257;102678;-84
2023/05/17 07:45:47;;;;;;;16.40;13.10;;;;;;;12.06;100.00;100717.05;105897;1261;99435;-86
2023/05/17 07:48:33;;;;;;;18.10;14.00;;;;;;;12.04;100.00;100713.17;106375;1257;97855;-88
2023/05/17 07:51:19;;;;;;;21.80;14.80;;;;;;;12.03;100.00;100714.27;106289;1260;98081;-86
2023/05/17 07:54:05;;;;;;;20.10;15.70;;;;;;;12.00;100.00;100711.86;106569;1257;98451;-89
2023/05/17 07:56:52;;;;;;;18.80;14.30;;;;;;;11.97;100.00;100717.14;106546;1257;102650;-89
2023/05/17 08:00:00;;;;;;;19.00;14.60;;;;;;;11.92;100.00;100723.34;106526;1262;99385;-91
2023/05/17 08:02:46;;;;;;;18.70;14.20;;;;;;;11.88;100.00;100730.33;106527;1257;98071;-93
2023/05/17 08:05:32;;;;;;;19.20;13.00;;;;;;;11.83;100.00;100728.55;106348;1257;97978;-90
2023/05/17 08:08:20;;;;;;;18.00;13.60;;;;;;;11.82;100.00;100733.77;106401;1260;97084;-91
2023/05/17 08:11:09;;;;;;;18.70;13.50;;;;;;;11.80;100.00;100732.69;106392;1257;102533;-84
2023/05/17 08:13:57;;;;;;;18.50;12.20;;;;;;;11.80;100.00;100734.48;106126;1259;100070;-83
2023/05/17 08:16:45;;;;;;;15.90;12.40;;;;;;;11.80;100.00;100728.13;105838;1257;97989;-81
2023/05/17 08:19:31;;;;;;;17.10;12.20;;;;;;;11.79;100.00;100722.06;105928;1262;97908;-80
2023/05/17 08:22:18;;;;;;;18.90;12.50;;;;;;;11.83;100.00;100720.00;105972;1257;98044;-82
2023/05/17 08:25:04;;;;;;;14.90;11.30;;;;;;;11.87;100.00;100713.59;106333;1259;102586;-84
2023/05/17 08:27:50;;;;;;;14.90;11.10;;;;;;;11.92;100.00;100719.50;106184;1259;100297;-83
2023/05/17 08:30:36;;;;;;;13.50;9.60;;;;;;;11.98;100.00;100725.41;105920;1262;98011;-84
2023/05/17 08:33:24;;;;;;;12.20;10.40;;;;;;;12.05;100.00;100729.95;105704;1257;97943;-82
2023/05/17 08:36:10;;;;;;;16.50;11.50;;;;;;;12.10;100.00;100733.34;105805;1260;97974;-83
2023/05/17 08:38:55;;;;;;;17.60;10.90;;;;;;;12.14;100.00;100736.47;105708;1263;102117;-84
2023/05/17 08:41:40;;;;;;;16.80;10.90;;;;;;;12.19;100.00;100742.17;105718;1259;99512;-85
2023/05/17 08:44:27;;;;;;;13.80;9.20;;;;;;;12.24;100.00;100743.20;106093;1259;99292;-84
2023/05/17 08:47:24;;;;;;;14.70;9.60;;;;;;;12.24;100.00;100739.74;105523;1259;98043;-86
2023/05/17 08:53:25;;;;;;;17.70;8.10;;;;;;;12.20;100.00;100745.45;106964;1260;102028;-93
2023/05/17 08:56:41;;;;;;;13.10;7.30;;;;;;;12.20;100.00;100751.77;106575;1265;101306;-88
2023/05/17 08:59:36;;;;;;;11.60;6.20;;;;;;;12.19;100.00;100750.10;106543;1258;100183;-91
2023/05/17 09:02:35;;;;;;;;;;;;;;;;;;;;;
2023/05/17 09:05:40;;;;;;;10.80;6.00;;;;;;;12.18;100.00;100746.95;106657;1265;98012;-92
2023/05/17 09:08:33;;;;;;;12.10;6.90;;;;;;;12.20;100.00;100755.57;106750;1262;102357;-92
2023/05/17 09:15:25;;;;;;;10.40;6.50;;;;;;;12.24;100.00;100766.27;106926;1257;98985;-92
2023/05/17 09:18:15;;;;;;;13.30;6.90;;;;;;;12.26;100.00;100767.08;106211;1257;97971;-85
2023/05/17 09:21:21;;;;;;;11.10;6.30;;;;;;;12.32;100.00;100770.70;106160;1262;97989;-93
2023/05/17 09:27:30;;;;;;;10.70;6.20;;;;;;;12.39;100.00;100774.70;106923;1258;101540;-87
2023/05/17 09:30:16;;;;;;;14.90;5.80;;;;;;;12.47;100.00;100774.52;106574;1261;106360;-91
2023/05/17 09:33:06;;;;;;;12.60;5.60;;;;;;;12.47;100.00;100770.88;106507;1257;96840;-90
2023/05/17 09:35:55;;;;;;;11.50;5.40;;;;;;;12.49;100.00;100770.27;106524;1263;98470;-94
2023/05/17 09:38:41;;;;;;;10.60;5.40;;;;;;;12.51;100.00;100769.34;106694;1257;102591;-89
2023/05/17 09:41:35;;;;;;;11.90;5.90;;;;;;;12.52;100.00;100766.16;106525;1257;99132;-91
2023/05/17 09:44:20;;;;;;;13.60;5.80;;;;;;;12.53;100.00;100769.80;105842;1267;97965;-86
2023/05/17 09:47:06;;;;;;;15.90;5.60;;;;;;;12.54;100.00;100771.46;106359;1257;97951;-90
2023/05/17 09:49:52;;;;;;;15.50;6.00;;;;;;;12.55;100.00;100771.19;106434;1260;98166;-90
2023/05/17 09:52:38;;;;;;;15.70;6.20;;;;;;;12.54;100.00;100773.61;106035;1257;102461;-87
2023/05/17 09:55:26;;;;;;;10.70;5.70;;;;;;;12.54;100.00;100778.20;106772;1261;100369;-88
2023/05/17 09:58:13;;;;;;;14.00;7.00;;;;;;;12.56;100.00;100773.63;106618;1257;98730;-89
2023/05/17 10:01:05;;;;;;;15.70;7.70;;;;;;;12.60;100.00;100769.57;106709;1267;98095;-93
2023/05/17 10:03:52;;;;;;;14.90;8.10;;;;;;;12.62;100.00;100771.52;106593;1258;98005;-92
2023/05/17 10:06:45;;;;;;;10.70;6.40;;;;;;;12.64;100.00;100767.91;106685;1257;102674;-91
2023/05/17 10:09:35;;;;;;;17.10;7.10;;;;;;;12.69;100.00;100774.26;106656;1257;99019;-90
2023/05/17 10:12:32;;;;;;;15.00;6.80;;;;;;;12.73;100.00;100778.23;105227;1257;2169608;-91
2023/05/17 10:15:28;;;;;;;10.20;6.50;;;;;;;12.76;100.00;100776.30;106658;1258;96481;-92
2023/05/17 10:18:25;;;;;;;19.10;6.90;;;;;;;12.77;100.00;100779.20;106888;1267;98484;-93
2023/05/17 10:21:12;;;;;;;12.90;6.30;;;;;;;12.81;100.00;100788.13;106249;1257;102678;-80
2023/05/17 10:24:01;;;;;;;14.90;7.70;;;;;;;12.85;100.00;100787.65;105621;1264;99091;-87
2023/05/17 10:26:49;;;;;;;9.30;7.00;;;;;;;12.87;100.00;100784.52;106486;1264;98072;-88
2023/05/17 10:29:37;;;;;;;17.20;6.80;;;;;;;12.85;100.00;100778.34;106431;1263;97976;-89
2023/05/17 10:32:31;;;;;;;14.40;7.40;;;;;;;12.85;100.00;100773.09;106291;1257;99311;-86
2023/05/17 10:35:17;;;;;;;12.80;7.20;;;;;;;12.87;100.00;100778.19;106332;1257;101385;-80
2023/05/17 10:38:02;;;;;;;14.40;7.00;;;;;;;12.91;100.00;100784.66;106744;1257;99105;-81
2023/05/17 10:40:50;;;;;;;15.60;7.80;;;;;;;12.97;100.00;100786.11;106639;1263;98097;-79
2023/05/17 10:43:37;;;;;;;14.30;7.20;;;;;;;13.00;100.00;100789.11;106549;1260;98760;-80
2023/05/17 10:46:23;;;;;;;17.50;7.90;;;;;;;13.04;100.00;100787.52;106818;1257;97982;-80
2023/05/17 10:49:09;;;;;;;18.10;7.60;;;;;;;13.11;100.00;100794.97;106651;1263;101327;-85
2023/05/17 10:52:10;;;;;;;14.40;8.10;;;;;;;13.18;100.00;100795.38;105760;1264;99315;-88
2023/05/17 10:54:58;;;;;;;16.80;8.90;;;;;;;13.22;100.00;100794.11;106237;1257;98342;-88
2023/05/17 10:58:07;;;;;;;11.70;7.30;;;;;;;13.24;100.00;100795.81;106317;1261;98171;-91
2023/05/17 11:04:55;;;;;;;14.70;9.70;;;;;;;13.23;100.00;100795.85;106542;1264;101309;-88
2023/05/17 11:07:42;;;;;;;11.90;7.90;;;;;;;13.19;100.00;100795.55;106237;1259;108429;-88
2023/05/17 11:11:21;;;;;;;14.70;8.20;;;;;;;13.21;100.00;100794.98;106447;1265;98623;-91
2023/05/17 11:14:23;;;;;;;14.80;8.00;;;;;;;13.24;100.00;100793.59;105088;1261;2044611;-89
2023/05/17 11:17:18;;;;;;;16.90;8.20;;;;;;;13.29;100.00;100791.45;106422;1264;98090;-89
2023/05/17 11:20:10;;;;;;;14.10;8.60;;;;;;;13.30;100.00;100790.27;106531;1265;102729;-91
2023/05/17 11:22:58;;;;;;;15.20;8.30;;;;;;;13.31;100.00;100785.41;106499;1259;100338;-89
2023/05/17 11:25:44;;;;;;;16.20;9.60;;;;;;;13.33;100.00;100785.22;106452;1268;98897;-88
2023/05/17 11:28:42;;;;;;;15.00;9.30;;;;;;;13.38;100.00;100785.58;106536;1263;97537;-91
2023/05/17 11:31:30;;;;;;;14.10;8.40;;;;;;;13.41;100.00;100785.46;106464;1260;97953;-87
2023/05/17 11:38:29;;;;;;;15.20;9.30;;;;;;;13.43;100.00;100784.04;106905;1260;100857;-93
2023/05/17 11:41:20;;;;;;;16.90;10.30;;;;;;;13.47;100.00;100785.08;106952;1261;97969;-92
2023/05/17 11:44:12;;;;;;;17.10;9.20;;;;;;;13.50;100.00;100788.98;107069;1259;98950;-93
2023/05/17 11:47:12;;;;;;;15.60;9.90;;;;;;;13.52;100.00;100790.81;106700;1261;96701;-94
2023/05/17 11:50:16;;;;;;;12.60;9.70;;;;;;;13.55;100.00;100789.05;106543;1259;102702;-88
2023/05/17 11:53:05;;;;;;;19.80;10.20;;;;;;;13.59;100.00;100793.27;106308;1260;99162;-88
2023/05/17 11:55:51;;;;;;;16.60;10.00;;;;;;;13.67;100.00;100794.11;106093;1259;98843;-89
2023/05/17 11:58:37;;;;;;;15.50;9.90;;;;;;;13.76;100.00;100798.81;106183;1261;97971;-89
2023/05/17 12:01:23;;;;;;;18.70;10.10;;;;;;;13.80;100.00;100800.69;106068;1263;99346;-79
2023/05/17 12:04:08;;;;;;;18.60;11.60;;;;;;;13.83;100.00;100807.04;105590;1260;101907;-79
2023/05/17 12:06:54;;;;;;;15.60;11.20;;;;;;;13.84;100.00;100807.37;106001;1262;99836;-79
2023/05/17 12:09:43;;;;;;;19.50;11.20;;;;;;;13.82;99.21;100807.48;105391;1264;98132;-77
2023/05/17 12:12:28;;;;;;;18.40;11.60;;;;;;;13.80;98.45;100805.74;105414;1260;97961;-79
2023/05/17 12:15:17;;;;;;;14.10;9.40;;;;;;;13.81;97.82;100808.70;105435;1262;98629;-79
2023/05/17 12:18:03;;;;;;;14.30;9.20;;;;;;;13.81;97.35;100808.44;105413;1266;102116;-79
2023/05/17 12:20:59;;;;;;;15.70;10.00;;;;;;;13.85;97.05;100814.91;105534;1261;100437;-80
2023/05/17 12:23:45;;;;;;;15.60;10.20;;;;;;;13.91;97.22;100823.05;106038;1261;99510;-80
2023/05/17 12:26:30;;;;;;;15.10;9.20;;;;;;;13.95;95.89;100826.16;105947;1261;97999;-80
2023/05/17 12:29:21;;;;;;;14.60;9.20;;;;;;;13.98;95.32;100829.27;105946;1262;98394;-79
2023/05/17 12:32:09;;;;;;;12.90;8.30;;;;;;;13.98;95.49;100829.78;106004;1261;102096;-79
2023/05/17 12:34:55;;;;;;;11.10;8.30;;;;;;;14.04;95.78;100830.34;105500;1262;99086;-80
2023/05/17 12:37:40;;;;;;;14.40;7.60;;;;;;;14.06;94.41;100829.80;105436;1262;98454;-82
2023/05/17 12:40:27;;;;;;;7.80;6.20;;;;;;;14.05;93.85;100828.63;105819;1264;98002;-84
2023/05/17 12:43:13;;;;;;;14.30;7.30;;;;;;;14.04;92.77;100825.31;105740;1265;98428;-82
2023/05/17 12:46:03;;;;;;;17.20;6.20;;;;;;;14.03;91.74;100826.11;105742;1264;102645;-83
2023/05/17 12:48:50;;;;;;;7.70;4.90;;;;;;;13.97;89.93;100822.73;105663;1261;99140;-83
2023/05/17 12:51:46;;;;;;;7.70;4.00;;;;;;;13.93;89.79;100824.96;105681;1263;98932;-83